ESMX

Växjö Kronoberg Airport

Växjö, Sweden
METAR ESMX 200720Z 06005KT 030V100 9999 OVC008 M01/M03 Q1024
Observed Flight Rules
Feb-20 @ 07:20 UTC (16 minutes ago) Instrument Flight Rules
Wind Visibility Clouds
60° at 5 knots 10,000+ meters
  • Overcast at 800' AGL
Temperatures Readings
Current -1°C / 30°F
Dewpoint -3°C / 27°F
Humidity 86%
Altimeter 30.24" Hg
Pressure 1024 hPa
Elevation 186
METAR ESMX 200720Z 06005KT 030V100 9999 OVC008 M01/M03 Q1024
Observed Flight Rules
Feb-20 @ 07:20 UTC
(16 minutes ago)
IFR
Wind Visibility
60° at 5 knots 10,000+ meters
Clouds
  • Overcast at 800' AGL
Temperature Dewpoint
-1°C / 30°F -3°C / 27°F
Humidity Altimeter Pressure
86% 30.24" Hg 1024 hPa